sensor_id;sensor_type;location;lat;lon;timestamp;pressure;altitude;pressure_sealevel;temperature;humidity
1736;BME280;865;53.672;10.250;2022-11-20T00:01:20;100792.75;;;0.33;100.00
1736;BME280;865;53.672;10.250;2022-11-20T00:03:47;100788.50;;;0.35;100.00
1736;BME280;865;53.672;10.250;2022-11-20T00:06:16;100797.13;;;0.38;100.00
1736;BME280;865;53.672;10.250;2022-11-20T00:08:43;100793.66;;;0.35;100.00
1736;BME280;865;53.672;10.250;2022-11-20T00:11:11;100792.78;;;0.34;100.00
1736;BME280;865;53.672;10.250;2022-11-20T00:13:42;100794.50;;;0.35;100.00
1736;BME280;865;53.672;10.250;2022-11-20T00:16:10;100788.25;;;0.22;100.00
1736;BME280;865;53.672;10.250;2022-11-20T00:18:37;100791.88;;;0.32;100.00
1736;BME280;865;53.672;10.250;2022-11-20T00:21:05;100794.44;;;0.32;100.00
1736;BME280;865;53.672;10.250;2022-11-20T00:23:32;100788.50;;;0.33;100.00
1736;BME280;865;53.672;10.250;2022-11-20T00:26:06;100788.50;;;0.35;100.00
1736;BME280;865;53.672;10.250;2022-11-20T00:28:34;100789.44;;;0.37;100.00
1736;BME280;865;53.672;10.250;2022-11-20T00:31:09;100793.69;;;0.36;100.00
1736;BME280;865;53.672;10.250;2022-11-20T00:33:35;100797.22;;;0.41;100.00
1736;BME280;865;53.672;10.250;2022-11-20T00:36:07;100793.75;;;0.39;100.00
1736;BME280;865;53.672;10.250;2022-11-20T00:38:34;100795.56;;;0.43;100.00
1736;BME280;865;53.672;10.250;2022-11-20T00:41:06;100787.84;;;0.42;100.00
1736;BME280;865;53.672;10.250;2022-11-20T00:43:33;100785.94;;;0.35;100.00
1736;BME280;865;53.672;10.250;2022-11-20T00:46:10;100791.06;;;0.33;100.00
1736;BME280;865;53.672;10.250;2022-11-20T00:48:38;100797.06;;;0.35;100.00
1736;BME280;865;53.672;10.250;2022-11-20T00:51:04;100791.19;;;0.39;100.00
1736;BME280;865;53.672;10.250;2022-11-20T00:53:31;100795.56;;;0.43;100.00
1736;BME280;865;53.672;10.250;2022-11-20T00:56:00;100791.25;;;0.42;100.00
1736;BME280;865;53.672;10.250;2022-11-20T00:58:35;100790.41;;;0.42;100.00
1736;BME280;865;53.672;10.250;2022-11-20T01:01:03;100786.00;;;0.38;100.00
1736;BME280;865;53.672;10.250;2022-11-20T01:03:34;100791.88;;;0.32;100.00
1736;BME280;865;53.672;10.250;2022-11-20T01:06:27;100778.19;;;0.32;100.00
1736;BME280;865;53.672;10.250;2022-11-20T01:08:54;100783.38;;;0.35;100.00
1736;BME280;865;53.672;10.250;2022-11-20T01:11:32;100778.31;;;0.38;100.00
1736;BME280;865;53.672;10.250;2022-11-20T01:14:00;100780.00;;;0.36;100.00
1736;BME280;865;53.672;10.250;2022-11-20T01:16:31;100776.63;;;0.38;100.00
1736;BME280;865;53.672;10.250;2022-11-20T01:19:00;100772.25;;;0.34;100.00
1736;BME280;865;53.672;10.250;2022-11-20T01:21:33;100772.91;;;0.26;100.00
1736;BME280;865;53.672;10.250;2022-11-20T01:23:59;100770.41;;;0.29;100.00
1736;BME280;865;53.672;10.250;2022-11-20T01:26:28;100764.50;;;0.31;100.00
1736;BME280;865;53.672;10.250;2022-11-20T01:28:56;100763.50;;;0.26;100.00
1736;BME280;865;53.672;10.250;2022-11-20T01:31:25;100767.78;;;0.24;100.00
1736;BME280;865;53.672;10.250;2022-11-20T01:33:56;100769.56;;;0.28;100.00
1736;BME280;865;53.672;10.250;2022-11-20T01:36:24;100765.94;;;0.18;100.00
1736;BME280;865;53.672;10.250;2022-11-20T01:38:52;100760.88;;;0.21;100.00
1736;BME280;865;53.672;10.250;2022-11-20T01:41:19;100751.28;;;0.14;100.00
1736;BME280;865;53.672;10.250;2022-11-20T01:44:04;100747.84;;;0.14;100.00
1736;BME280;865;53.672;10.250;2022-11-20T01:46:37;100750.41;;;0.14;100.00
1736;BME280;865;53.672;10.250;2022-11-20T01:51:45;100753.28;;;-0.12;100.00
1736;BME280;865;53.672;10.250;2022-11-20T01:54:17;100743.16;;;-0.06;100.00
1736;BME280;865;53.672;10.250;2022-11-20T01:56:46;100756.94;;;-0.01;100.00
1736;BME280;865;53.672;10.250;2022-11-20T01:59:15;100747.63;;;0.03;100.00
1736;BME280;865;53.672;10.250;2022-11-20T02:01:44;100750.13;;;0.00;100.00
1736;BME280;865;53.672;10.250;2022-11-20T02:04:12;100741.19;;;-0.16;100.00
1736;BME280;865;53.672;10.250;2022-11-20T02:06:46;100748.13;;;-0.12;100.00
1736;BME280;865;53.672;10.250;2022-11-20T02:09:15;100738.47;;;-0.24;100.00
1736;BME280;865;53.672;10.250;2022-11-20T02:11:41;100742.94;;;-0.15;100.00
1736;BME280;865;53.672;10.250;2022-11-20T02:14:08;100745.59;;;-0.10;100.00
1736;BME280;865;53.672;10.250;2022-11-20T02:16:37;100739.41;;;-0.18;100.00
1736;BME280;865;53.672;10.250;2022-11-20T02:19:11;100739.47;;;-0.15;100.00
1736;BME280;865;53.672;10.250;2022-11-20T02:24:20;100746.38;;;-0.13;100.00
1736;BME280;865;53.672;10.250;2022-11-20T02:26:53;100737.00;;;-0.12;100.00
1736;BME280;865;53.672;10.250;2022-11-20T02:29:26;100731.06;;;-0.10;100.00
1736;BME280;865;53.672;10.250;2022-11-20T02:31:54;100729.41;;;-0.08;100.00
1736;BME280;865;53.672;10.250;2022-11-20T02:34:21;100728.63;;;-0.05;100.00
1736;BME280;865;53.672;10.250;2022-11-20T02:36:49;100728.38;;;-0.16;100.00
1736;BME280;865;53.672;10.250;2022-11-20T02:39:17;100728.50;;;-0.10;100.00
1736;BME280;865;53.672;10.250;2022-11-20T02:41:46;100718.31;;;-0.07;100.00
1736;BME280;865;53.672;10.250;2022-11-20T02:44:12;100720.16;;;-0.01;100.00
1736;BME280;865;53.672;10.250;2022-11-20T02:46:39;100719.25;;;-0.05;100.00
1736;BME280;865;53.672;10.250;2022-11-20T02:49:05;100713.28;;;-0.04;100.00
1736;BME280;865;53.672;10.250;2022-11-20T02:51:32;100719.97;;;-0.10;100.00
1736;BME280;865;53.672;10.250;2022-11-20T02:53:58;100724.16;;;-0.12;100.00
1736;BME280;865;53.672;10.250;2022-11-20T02:56:25;100713.13;;;-0.10;100.00
1736;BME280;865;53.672;10.250;2022-11-20T02:58:52;100726.03;;;-0.07;100.00
1736;BME280;865;53.672;10.250;2022-11-20T03:01:18;100718.25;;;-0.10;100.00
1736;BME280;865;53.672;10.250;2022-11-20T03:03:45;100711.41;;;-0.11;100.00
1736;BME280;865;53.672;10.250;2022-11-20T03:06:11;100711.50;;;-0.06;100.00
1736;BME280;865;53.672;10.250;2022-11-20T03:08:38;100711.50;;;-0.06;100.00
1736;BME280;865;53.672;10.250;2022-11-20T03:11:06;100718.38;;;-0.05;100.00
1736;BME280;865;53.672;10.250;2022-11-20T03:13:33;100712.97;;;-0.17;100.00
1736;BME280;865;53.672;10.250;2022-11-20T03:16:08;100715.34;;;-0.25;100.00
1736;BME280;865;53.672;10.250;2022-11-20T03:18:34;100711.88;;;-0.27;100.00
1736;BME280;865;53.672;10.250;2022-11-20T03:21:01;100716.19;;;-0.25;100.00
1736;BME280;865;53.672;10.250;2022-11-20T03:23:29;100712.81;;;-0.24;100.00
1736;BME280;865;53.672;10.250;2022-11-20T03:26:16;100712.25;;;-0.12;100.00
1736;BME280;865;53.672;10.250;2022-11-20T03:28:48;100702.84;;;-0.11;100.00
1736;BME280;865;53.672;10.250;2022-11-20T03:31:16;100711.28;;;-0.15;100.00
1736;BME280;865;53.672;10.250;2022-11-20T03:33:43;100706.94;;;-0.18;100.00
1736;BME280;865;53.672;10.250;2022-11-20T03:36:12;100712.75;;;-0.27;100.00
1736;BME280;865;53.672;10.250;2022-11-20T03:38:39;100709.31;;;-0.27;100.00
1736;BME280;865;53.672;10.250;2022-11-20T03:41:14;100701.00;;;-0.17;100.00
1736;BME280;865;53.672;10.250;2022-11-20T03:43:41;100699.25;;;-0.19;100.00
1736;BME280;865;53.672;10.250;2022-11-20T03:46:07;100699.38;;;-0.13;100.00
1736;BME280;865;53.672;10.250;2022-11-20T03:48:41;100687.28;;;-0.20;100.00
1736;BME280;865;53.672;10.250;2022-11-20T03:51:19;100694.13;;;-0.18;100.00
1736;BME280;865;53.672;10.250;2022-11-20T03:53:47;100683.03;;;-0.18;100.00
1736;BME280;865;53.672;10.250;2022-11-20T03:56:15;100686.25;;;-0.27;100.00
1736;BME280;865;53.672;10.250;2022-11-20T03:58:43;100686.31;;;-0.24;100.00
1736;BME280;865;53.672;10.250;2022-11-20T04:01:12;100689.91;;;-0.17;100.00
1736;BME280;865;53.672;10.250;2022-11-20T04:03:40;100689.00;;;-0.18;100.00
1736;BME280;865;53.672;10.250;2022-11-20T04:06:16;100688.13;;;-0.20;100.00
1736;BME280;865;53.672;10.250;2022-11-20T04:08:43;100699.81;;;-0.31;100.00
1736;BME280;865;53.672;10.250;2022-11-20T04:11:16;100693.72;;;-0.36;100.00
1736;BME280;865;53.672;10.250;2022-11-20T04:13:46;100696.34;;;-0.33;100.00
1736;BME280;865;53.672;10.250;2022-11-20T04:16:13;100696.19;;;-0.39;100.00
1736;BME280;865;53.672;10.250;2022-11-20T04:18:40;100687.13;;;-0.27;100.00
1736;BME280;865;53.672;10.250;2022-11-20T04:21:06;100687.06;;;-0.28;100.00
1736;BME280;865;53.672;10.250;2022-11-20T04:23:33;100681.09;;;-0.27;100.00
1736;BME280;865;53.672;10.250;2022-11-20T04:26:08;100690.50;;;-0.28;100.00
1736;BME280;865;53.672;10.250;2022-11-20T04:28:35;100690.34;;;-0.34;100.00
1736;BME280;865;53.672;10.250;2022-11-20T04:31:07;100682.72;;;-0.32;100.00
1736;BME280;865;53.672;10.250;2022-11-20T04:33:34;100684.56;;;-0.27;100.00
1736;BME280;865;53.672;10.250;2022-11-20T04:36:10;100681.09;;;-0.27;100.00
1736;BME280;865;53.672;10.250;2022-11-20T04:38:37;100673.41;;;-0.27;100.00
1736;BME280;865;53.672;10.250;2022-11-20T04:41:06;100672.53;;;-0.29;100.00
1736;BME280;865;53.672;10.250;2022-11-20T04:43:33;100669.13;;;-0.28;100.00
1736;BME280;865;53.672;10.250;2022-11-20T04:46:00;100671.63;;;-0.31;100.00
1736;BME280;865;53.672;10.250;2022-11-20T04:48:29;100665.84;;;-0.22;100.00
1736;BME280;865;53.672;10.250;2022-11-20T04:50:55;100668.28;;;-0.27;100.00
1736;BME280;865;53.672;10.250;2022-11-20T04:53:22;100670.94;;;-0.24;100.00
1736;BME280;865;53.672;10.250;2022-11-20T04:55:49;100670.19;;;-0.20;100.00
1736;BME280;865;53.672;10.250;2022-11-20T04:58:16;100672.75;;;-0.18;100.00
1736;BME280;865;53.672;10.250;2022-11-20T05:00:42;100671.91;;;-0.19;100.00
1736;BME280;865;53.672;10.250;2022-11-20T05:03:08;100663.25;;;-0.24;100.00
1736;BME280;865;53.672;10.250;2022-11-20T05:05:35;100660.66;;;-0.26;100.00
1736;BME280;865;53.672;10.250;2022-11-20T05:08:01;100660.72;;;-0.22;100.00
1736;BME280;865;53.672;10.250;2022-11-20T05:10:30;100651.97;;;-0.32;100.00
1736;BME280;865;53.672;10.250;2022-11-20T05:12:57;100657.91;;;-0.33;100.00
1736;BME280;865;53.672;10.250;2022-11-20T05:15:24;100651.84;;;-0.38;100.00
1736;BME280;865;53.672;10.250;2022-11-20T05:17:51;100652.91;;;-0.29;100.00
1736;BME280;865;53.672;10.250;2022-11-20T05:20:18;100653.81;;;-0.25;100.00
1736;BME280;865;53.672;10.250;2022-11-20T05:22:45;100647.84;;;-0.26;100.00
1736;BME280;865;53.672;10.250;2022-11-20T05:25:11;100639.75;;;-0.42;100.00
1736;BME280;865;53.672;10.250;2022-11-20T05:27:38;100639.09;;;-0.34;100.00
1736;BME280;865;53.672;10.250;2022-11-20T05:30:05;100631.41;;;-0.35;100.00
1736;BME280;865;53.672;10.250;2022-11-20T05:32:32;100633.84;;;-0.40;100.00
1736;BME280;865;53.672;10.250;2022-11-20T05:34:58;100622.81;;;-0.37;100.00
1736;BME280;865;53.672;10.250;2022-11-20T05:37:24;100623.81;;;-0.31;100.00
1736;BME280;865;53.672;10.250;2022-11-20T05:39:51;100625.50;;;-0.31;100.00
1736;BME280;865;53.672;10.250;2022-11-20T05:42:17;100620.44;;;-0.28;100.00
1736;BME280;865;53.672;10.250;2022-11-20T05:45:00;100621.28;;;-0.29;100.00
1736;BME280;865;53.672;10.250;2022-11-20T05:47:31;100615.38;;;-0.25;100.00
1736;BME280;865;53.672;10.250;2022-11-20T05:49:58;100611.84;;;-0.30;100.00
1736;BME280;865;53.672;10.250;2022-11-20T05:52:28;100610.97;;;-0.31;100.00
1736;BME280;865;53.672;10.250;2022-11-20T05:54:55;100617.63;;;-0.40;100.00
1736;BME280;865;53.672;10.250;2022-11-20T05:57:22;100618.59;;;-0.35;100.00
1736;BME280;865;53.672;10.250;2022-11-20T05:59:48;100628.84;;;-0.34;100.00
1736;BME280;865;53.672;10.250;2022-11-20T06:02:14;100625.47;;;-0.33;100.00
1736;BME280;865;53.672;10.250;2022-11-20T06:04:41;100626.41;;;-0.29;100.00
1736;BME280;865;53.672;10.250;2022-11-20T06:07:07;100628.19;;;-0.27;100.00
1736;BME280;865;53.672;10.250;2022-11-20T06:09:34;100627.28;;;-0.29;100.00
1736;BME280;865;53.672;10.250;2022-11-20T06:12:00;100633.31;;;-0.27;100.00
1736;BME280;865;53.672;10.250;2022-11-20T06:14:26;100628.13;;;-0.28;100.00
1736;BME280;865;53.672;10.250;2022-11-20T06:16:53;100628.00;;;-0.34;100.00
1736;BME280;865;53.672;10.250;2022-11-20T06:19:19;100618.72;;;-0.29;100.00
1736;BME280;865;53.672;10.250;2022-11-20T06:21:48;100629.84;;;-0.27;100.00
1736;BME280;865;53.672;10.250;2022-11-20T06:24:15;100628.84;;;-0.34;100.00
1736;BME280;865;53.672;10.250;2022-11-20T06:26:41;100638.38;;;-0.30;100.00
1736;BME280;865;53.672;10.250;2022-11-20T06:29:08;100638.28;;;-0.33;100.00
1736;BME280;865;53.672;10.250;2022-11-20T06:31:34;100639.25;;;-0.28;100.00
1736;BME280;865;53.672;10.250;2022-11-20T06:34:06;100632.34;;;-0.30;100.00
1736;BME280;865;53.672;10.250;2022-11-20T06:36:33;100635.03;;;-0.24;100.00
1736;BME280;865;53.672;10.250;2022-11-20T06:39:00;100630.50;;;-0.37;100.00
1736;BME280;865;53.672;10.250;2022-11-20T06:41:26;100624.53;;;-0.36;100.00
1736;BME280;865;53.672;10.250;2022-11-20T06:43:54;100633.25;;;-0.28;100.00
1736;BME280;865;53.672;10.250;2022-11-20T06:46:21;100629.91;;;-0.24;100.00
1736;BME280;865;53.672;10.250;2022-11-20T06:48:48;100630.44;;;-0.39;100.00
1736;BME280;865;53.672;10.250;2022-11-20T06:51:15;100629.44;;;-0.46;100.00
1736;BME280;865;53.672;10.250;2022-11-20T06:53:41;100626.00;;;-0.48;100.00
1736;BME280;865;53.672;10.250;2022-11-20T06:56:08;100626.03;;;-0.46;100.00
1736;BME280;865;53.672;10.250;2022-11-20T06:58:35;100624.09;;;-0.55;100.00
1736;BME280;865;53.672;10.250;2022-11-20T07:01:04;100626.44;;;-0.65;100.00
1736;BME280;865;53.672;10.250;2022-11-20T07:03:32;100623.91;;;-0.64;100.00
1736;BME280;865;53.672;10.250;2022-11-20T07:06:00;100630.75;;;-0.63;100.00
1736;BME280;865;53.672;10.250;2022-11-20T07:08:26;100625.81;;;-0.54;100.00
1736;BME280;865;53.672;10.250;2022-11-20T07:10:57;100626.72;;;-0.53;100.00
1736;BME280;865;53.672;10.250;2022-11-20T07:13:23;100621.19;;;-0.70;100.00
1736;BME280;865;53.672;10.250;2022-11-20T07:15:50;100615.38;;;-0.63;100.00
1736;BME280;865;53.672;10.250;2022-11-20T07:18:16;100624.25;;;-0.49;100.00
1736;BME280;865;53.672;10.250;2022-11-20T07:20:43;100617.63;;;-0.40;100.00
1736;BME280;865;53.672;10.250;2022-11-20T07:23:09;100610.84;;;-0.38;100.00
1736;BME280;865;53.672;10.250;2022-11-20T07:25:35;100611.75;;;-0.35;100.00
1736;BME280;865;53.672;10.250;2022-11-20T07:28:02;100610.06;;;-0.34;100.00
1736;BME280;865;53.672;10.250;2022-11-20T07:30:28;100616.94;;;-0.32;100.00
1736;BME280;865;53.672;10.250;2022-11-20T07:32:55;100616.91;;;-0.33;100.00
1736;BME280;865;53.672;10.250;2022-11-20T07:35:23;100611.84;;;-0.30;100.00
1736;BME280;865;53.672;10.250;2022-11-20T07:37:50;100603.41;;;-0.26;100.00
1736;BME280;865;53.672;10.250;2022-11-20T07:40:17;100601.09;;;-0.14;100.00
1736;BME280;865;53.672;10.250;2022-11-20T07:42:51;100611.22;;;-0.20;100.00
1736;BME280;865;53.672;10.250;2022-11-20T07:45:18;100613.00;;;-0.17;100.00
1736;BME280;865;53.672;10.250;2022-11-20T07:47:45;100614.59;;;-0.22;100.00
1736;BME280;865;53.672;10.250;2022-11-20T07:50:12;100617.09;;;-0.24;100.00
1736;BME280;865;53.672;10.250;2022-11-20T07:52:38;100617.09;;;-0.26;100.00
1736;BME280;865;53.672;10.250;2022-11-20T07:55:05;100616.88;;;-0.35;100.00
1736;BME280;865;53.672;10.250;2022-11-20T07:57:32;100613.53;;;-0.31;100.00
1736;BME280;865;53.672;10.250;2022-11-20T07:59:58;100622.06;;;-0.32;100.00
1736;BME280;865;53.672;10.250;2022-11-20T08:02:25;100611.13;;;-0.25;100.00
1736;BME280;865;53.672;10.250;2022-11-20T08:04:51;100618.00;;;-0.22;100.00
1736;BME280;865;53.672;10.250;2022-11-20T08:07:17;100613.00;;;-0.17;100.00
1736;BME280;865;53.672;10.250;2022-11-20T08:09:44;100606.84;;;-0.24;100.00
1736;BME280;865;53.672;10.250;2022-11-20T08:12:18;100614.59;;;-0.21;100.00
1736;BME280;865;53.672;10.250;2022-11-20T08:15:04;100618.84;;;-0.23;100.00
1736;BME280;865;53.672;10.250;2022-11-20T08:17:38;100615.06;;;-0.39;100.00
1736;BME280;865;53.672;10.250;2022-11-20T08:20:04;100613.72;;;-0.23;100.00
1736;BME280;865;53.672;10.250;2022-11-20T08:22:31;100614.66;;;-0.18;100.00
1736;BME280;865;53.672;10.250;2022-11-20T08:24:58;100612.28;;;-0.12;100.00
1736;BME280;865;53.672;10.250;2022-11-20T08:27:24;100613.03;;;-0.16;100.00
1736;BME280;865;53.672;10.250;2022-11-20T08:29:51;100610.50;;;-0.14;100.00
1736;BME280;865;53.672;10.250;2022-11-20T08:32:17;100613.66;;;-0.26;100.00
1736;BME280;865;53.672;10.250;2022-11-20T08:34:44;100613.69;;;-0.25;100.00
1736;BME280;865;53.672;10.250;2022-11-20T08:37:10;100612.03;;;-0.22;100.00
1736;BME280;865;53.672;10.250;2022-11-20T08:39:36;100612.94;;;-0.19;100.00
1736;BME280;865;53.672;10.250;2022-11-20T08:42:07;100610.31;;;-0.22;100.00
1736;BME280;865;53.672;10.250;2022-11-20T08:44:33;100616.28;;;-0.23;100.00
1736;BME280;865;53.672;10.250;2022-11-20T08:47:00;100614.78;;;-0.15;100.00
1736;BME280;865;53.672;10.250;2022-11-20T08:49:26;100611.44;;;-0.11;100.00
1736;BME280;865;53.672;10.250;2022-11-20T08:51:53;100610.66;;;-0.07;100.00
1736;BME280;865;53.672;10.250;2022-11-20T08:54:21;100610.81;;;0.01;100.00
1736;BME280;865;53.672;10.250;2022-11-20T08:56:48;100607.41;;;0.02;100.00
1736;BME280;865;53.672;10.250;2022-11-20T08:59:15;100622.78;;;0.01;100.00
1736;BME280;865;53.672;10.250;2022-11-20T09:02:01;100610.72;;;-0.04;100.00
1736;BME280;865;53.672;10.250;2022-11-20T09:04:28;100613.22;;;-0.07;100.00
1736;BME280;865;53.672;10.250;2022-11-20T09:06:54;100607.97;;;-0.13;100.00
1736;BME280;865;53.672;10.250;2022-11-20T09:09:21;100612.34;;;-0.09;100.00
1736;BME280;865;53.672;10.250;2022-11-20T09:11:47;100614.00;;;-0.11;100.00
1736;BME280;865;53.672;10.250;2022-11-20T09:14:15;100622.66;;;-0.06;100.00
1736;BME280;865;53.672;10.250;2022-11-20T09:16:42;100624.41;;;-0.03;100.00
1736;BME280;865;53.672;10.250;2022-11-20T09:19:10;100623.53;;;-0.04;100.00
1736;BME280;865;53.672;10.250;2022-11-20T09:21:56;100625.28;;;-0.03;100.00
1736;BME280;865;53.672;10.250;2022-11-20T09:24:26;100630.88;;;-0.20;100.00
1736;BME280;865;53.672;10.250;2022-11-20T09:26:52;100631.75;;;-0.20;100.00
1736;BME280;865;53.672;10.250;2022-11-20T09:29:18;100633.53;;;-0.16;100.00
1736;BME280;865;53.672;10.250;2022-11-20T09:31:45;100629.91;;;-0.24;100.00
1736;BME280;865;53.672;10.250;2022-11-20T09:34:12;100626.53;;;-0.23;100.00
1736;BME280;865;53.672;10.250;2022-11-20T09:36:38;100632.41;;;-0.27;100.00
1736;BME280;865;53.672;10.250;2022-11-20T09:39:04;100630.59;;;-0.33;100.00
1736;BME280;865;53.672;10.250;2022-11-20T09:55:10;100613.88;;;-0.17;100.00
1736;BME280;865;53.672;10.250;2022-11-20T09:57:41;100615.56;;;-0.17;100.00
1736;BME280;865;53.672;10.250;2022-11-20T10:00:12;100616.56;;;-0.09;100.00
1736;BME280;865;53.672;10.250;2022-11-20T10:05:21;100624.19;;;-0.12;100.00
1736;BME280;865;53.672;10.250;2022-11-20T10:10:46;100615.16;;;0.05;100.00
1736;BME280;865;53.672;10.250;2022-11-20T10:29:34;100616.50;;;0.27;100.00
1736;BME280;865;53.672;10.250;2022-11-20T10:32:07;100614.44;;;0.11;100.00
1736;BME280;865;53.672;10.250;2022-11-20T10:35:01;100615.09;;;0.01;100.00
1736;BME280;865;53.672;10.250;2022-11-20T10:37:31;100616.81;;;0.02;100.00
1736;BME280;865;53.672;10.250;2022-11-20T10:40:06;100615.84;;;-0.04;100.00
1736;BME280;865;53.672;10.250;2022-11-20T10:42:49;100611.63;;;-0.02;100.00
1736;BME280;865;53.672;10.250;2022-11-20T10:47:51;100613.59;;;0.12;100.00
1736;BME280;865;53.672;10.250;2022-11-20T10:50:20;100613.88;;;0.24;100.00
1736;BME280;865;53.672;10.250;2022-11-20T10:53:03;100616.69;;;0.38;100.00
1736;BME280;865;53.672;10.250;2022-11-20T10:55:50;100603.91;;;0.39;100.00
1736;BME280;865;53.672;10.250;2022-11-20T10:58:49;100595.53;;;0.50;100.00
1736;BME280;865;53.672;10.250;2022-11-20T11:01:20;100599.00;;;0.53;100.00
1736;BME280;865;53.672;10.250;2022-11-20T11:03:55;100593.81;;;0.49;100.00
1736;BME280;865;53.672;10.250;2022-11-20T11:08:58;100595.34;;;0.40;100.00
1736;BME280;865;53.672;10.250;2022-11-20T11:11:32;100589.19;;;0.31;100.00
1736;BME280;865;53.672;10.250;2022-11-20T11:14:14;100581.63;;;0.38;100.00
1736;BME280;865;53.672;10.250;2022-11-20T11:16:53;100581.56;;;0.35;100.00
1736;BME280;865;53.672;10.250;2022-11-20T11:19:20;100581.88;;;0.51;100.00
1736;BME280;865;53.672;10.250;2022-11-20T11:21:54;100584.50;;;0.55;100.00
1736;BME280;865;53.672;10.250;2022-11-20T11:24:23;100574.41;;;0.63;100.00
1736;BME280;865;53.672;10.250;2022-11-20T11:27:14;100570.66;;;0.47;100.00
1736;BME280;865;53.672;10.250;2022-11-20T11:29:44;100567.19;;;0.42;100.00
1736;BME280;865;53.672;10.250;2022-11-20T11:32:17;100568.91;;;0.43;100.00
1736;BME280;865;53.672;10.250;2022-11-20T11:34:44;100563.19;;;0.59;100.00
1736;BME280;865;53.672;10.250;2022-11-20T11:37:18;100559.56;;;0.47;100.00
1736;BME280;865;53.672;10.250;2022-11-20T11:39:48;100562.38;;;0.60;100.00
1736;BME280;865;53.672;10.250;2022-11-20T11:42:29;100552.06;;;0.57;100.00
1736;BME280;865;53.672;10.250;2022-11-20T11:44:58;100551.31;;;0.63;100.00
1736;BME280;865;53.672;10.250;2022-11-20T11:47:44;100548.00;;;0.70;100.00
1736;BME280;865;53.672;10.250;2022-11-20T11:52:48;100543.72;;;0.69;100.00
1736;BME280;865;53.672;10.250;2022-11-20T11:55:31;100548.63;;;0.58;100.00
1736;BME280;865;53.672;10.250;2022-11-20T12:06:36;100539.53;;;0.77;100.00
1736;BME280;865;53.672;10.250;2022-11-20T12:09:09;100548.25;;;0.85;100.00
1736;BME280;865;53.672;10.250;2022-11-20T12:11:45;100549.00;;;0.78;100.00
1736;BME280;865;53.672;10.250;2022-11-20T12:14:25;100549.72;;;0.71;100.00
1736;BME280;865;53.672;10.250;2022-11-20T12:16:53;100545.72;;;0.87;100.00
1736;BME280;865;53.672;10.250;2022-11-20T12:19:21;100537.22;;;0.89;100.00
1736;BME280;865;53.672;10.250;2022-11-20T12:22:04;100537.16;;;0.86;100.00
1736;BME280;865;53.672;10.250;2022-11-20T12:24:42;100539.81;;;0.93;100.00
1736;BME280;865;53.672;10.250;2022-11-20T12:27:27;100530.41;;;0.93;100.00
1736;BME280;865;53.672;10.250;2022-11-20T12:30:13;100524.31;;;0.86;100.00
1736;BME280;865;53.672;10.250;2022-11-20T12:44:12;100507.88;;;0.75;100.00
1736;BME280;865;53.672;10.250;2022-11-20T12:47:18;100513.06;;;0.78;100.00
1736;BME280;865;53.672;10.250;2022-11-20T12:52:44;100512.19;;;0.79;100.00
1736;BME280;865;53.672;10.250;2022-11-20T12:55:16;100515.56;;;0.77;100.00
1736;BME280;865;53.672;10.250;2022-11-20T12:57:54;100517.44;;;0.84;100.00
1736;BME280;865;53.672;10.250;2022-11-20T13:00:24;100511.31;;;0.77;100.00
1736;BME280;865;53.672;10.250;2022-11-20T13:05:31;100517.81;;;1.10;100.00
1736;BME280;865;53.672;10.250;2022-11-20T13:08:03;100508.47;;;1.15;100.00
1736;BME280;865;53.672;10.250;2022-11-20T13:10:44;100510.31;;;1.24;100.00
1736;BME280;865;53.672;10.250;2022-11-20T13:14:00;100508.69;;;1.30;100.00
1736;BME280;865;53.672;10.250;2022-11-20T13:16:36;100506.97;;;1.29;100.00
1736;BME280;865;53.672;10.250;2022-11-20T13:19:05;100506.19;;;1.36;100.00
1736;BME280;865;53.672;10.250;2022-11-20T13:21:41;100503.72;;;1.43;100.00
1736;BME280;865;53.672;10.250;2022-11-20T13:27:16;100488.25;;;1.38;100.00
1736;BME280;865;53.672;10.250;2022-11-20T13:29:46;100486.69;;;1.51;100.00
1736;BME280;865;53.672;10.250;2022-11-20T13:34:39;100481.59;;;1.52;100.00
1736;BME280;865;53.672;10.250;2022-11-20T13:37:25;100483.38;;;1.58;100.00
1736;BME280;865;53.672;10.250;2022-11-20T13:39:52;100476.38;;;1.48;100.00
1736;BME280;865;53.672;10.250;2022-11-20T13:42:27;100468.63;;;1.45;100.00
1736;BME280;865;53.672;10.250;2022-11-20T13:44:55;100466.78;;;1.34;100.00
1736;BME280;865;53.672;10.250;2022-11-20T13:47:27;100465.81;;;1.28;100.00
1736;BME280;865;53.672;10.250;2022-11-20T13:49:58;100477.03;;;1.31;100.00
1736;BME280;865;53.672;10.250;2022-11-20T13:55:36;100477.81;;;1.26;100.00
1736;BME280;865;53.672;10.250;2022-11-20T14:00:56;100476.66;;;1.05;100.00
1736;BME280;865;53.672;10.250;2022-11-20T14:03:24;100474.13;;;1.08;100.00
1736;BME280;865;53.672;10.250;2022-11-20T14:06:19;100474.19;;;1.13;100.00
1736;BME280;865;53.672;10.250;2022-11-20T14:08:48;100468.34;;;1.23;100.00
1736;BME280;865;53.672;10.250;2022-11-20T14:11:23;100467.53;;;1.27;100.00
1736;BME280;865;53.672;10.250;2022-11-20T14:14:10;100459.94;;;1.36;100.00
1736;BME280;865;53.672;10.250;2022-11-20T14:16:39;100460.06;;;1.44;100.00
1736;BME280;865;53.672;10.250;2022-11-20T14:21:54;100457.88;;;1.08;100.00
1736;BME280;865;53.672;10.250;2022-11-20T14:24:23;100459.66;;;1.15;100.00
1736;BME280;865;53.672;10.250;2022-11-20T14:26:51;100450.41;;;1.26;100.00
1736;BME280;865;53.672;10.250;2022-11-20T14:29:26;100454.66;;;1.24;100.00
1736;BME280;865;53.672;10.250;2022-11-20T14:31:54;100452.16;;;1.29;100.00
1736;BME280;865;53.672;10.250;2022-11-20T14:34:24;100447.63;;;1.12;100.00
1736;BME280;865;53.672;10.250;2022-11-20T14:36:56;100457.91;;;1.11;100.00
1736;BME280;865;53.672;10.250;2022-11-20T14:39:30;100451.91;;;1.10;100.00
1736;BME280;865;53.672;10.250;2022-11-20T14:41:57;100447.69;;;1.14;100.00
1736;BME280;865;53.672;10.250;2022-11-20T14:44:27;100450.22;;;1.12;100.00
1736;BME280;865;53.672;10.250;2022-11-20T14:46:55;100450.97;;;1.05;100.00
1736;BME280;865;53.672;10.250;2022-11-20T14:49:23;100446.59;;;0.98;100.00